Time,TemperatureF,DewpointF,PressureIn,WindDirection,WindDirectionDegrees,WindSpeedMPH,WindSpeedGustMPH,Humidity,HourlyPrecipIn,Conditions,Clouds,dailyrainin,SolarRadiationWatts/m^2,SoftwareType,DateUTC
2013-01-27 00:00:00,22.0,19.0,-100.00,SSW,202,1.0,-999.0,87,-99.99,,,-99.99,0.000000,,2013-01-27 05:00:00,
2013-01-27 00:42:00,22.0,19.0,-100.00,SSW,202,1.0,-999.0,87,-99.99,,,-99.99,0.000000,,2013-01-27 05:42:00,
2013-01-27 00:52:00,22.0,19.0,-100.00,SSW,202,1.0,-999.0,87,-99.99,,,-99.99,0.000000,,2013-01-27 05:52:00,
2013-01-27 01:00:00,23.0,18.0,-100.00,South,180,3.0,-999.0,82,-99.99,,,-99.99,0.000000,,2013-01-27 06:00:00,
2013-01-27 01:32:00,23.0,18.0,-100.00,South,180,3.0,-999.0,82,-99.99,,,-99.99,0.000000,,2013-01-27 06:32:00,
2013-01-27 01:42:00,23.0,18.0,-100.00,South,180,3.0,-999.0,82,-99.99,,,-99.99,0.000000,,2013-01-27 06:42:00,
2013-01-27 01:52:00,23.0,18.0,-100.00,South,180,3.0,-999.0,82,-99.99,,,-99.99,0.000000,,2013-01-27 06:52:00,
2013-01-27 02:00:00,21.0,16.0,-100.00,SSE,157,1.0,-999.0,82,-99.99,,,-99.99,0.000000,,2013-01-27 07:00:00,
2013-01-27 02:32:00,21.0,16.0,-100.00,SSE,157,1.0,-999.0,82,-99.99,,,-99.99,0.000000,,2013-01-27 07:32:00,
2013-01-27 02:42:00,21.0,16.0,-100.00,SSE,157,1.0,-999.0,82,-99.99,,,-99.99,0.000000,,2013-01-27 07:42:00,
2013-01-27 02:52:00,21.0,16.0,-100.00,SSE,157,1.0,-999.0,82,-99.99,,,-99.99,0.000000,,2013-01-27 07:52:00,
2013-01-27 03:00:00,20.0,16.0,-100.00,SE,135,0.0,-999.0,84,-99.99,,,-99.99,0.000000,,2013-01-27 08:00:00,
2013-01-27 03:42:00,20.0,16.0,-100.00,SE,135,0.0,-999.0,84,-99.99,,,-99.99,0.000000,,2013-01-27 08:42:00,
2013-01-27 03:52:00,20.0,16.0,-100.00,SE,135,0.0,-999.0,84,-99.99,,,-99.99,0.000000,,2013-01-27 08:52:00,
2013-01-27 04:00:00,19.0,16.0,-100.00,SSE,157,1.0,-999.0,86,-99.99,,,-99.99,0.000000,,2013-01-27 09:00:00,
2013-01-27 04:42:00,19.0,16.0,-100.00,SSE,157,1.0,-999.0,86,-99.99,,,-99.99,0.000000,,2013-01-27 09:42:00,
2013-01-27 04:52:00,19.0,16.0,-100.00,SSE,157,1.0,-999.0,86,-99.99,,,-99.99,0.000000,,2013-01-27 09:52:00,
2013-01-27 05:00:00,21.0,16.0,-100.00,SSE,157,3.0,-999.0,81,-99.99,,,-99.99,0.000000,,2013-01-27 10:00:00,
2013-01-27 05:21:00,21.0,16.0,-100.00,SSE,157,3.0,-999.0,81,-99.99,,,-99.99,0.000000,,2013-01-27 10:21:00,
2013-01-27 05:32:00,21.0,16.0,-100.00,SSE,157,3.0,-999.0,81,-99.99,,,-99.99,0.000000,,2013-01-27 10:32:00,
2013-01-27 05:42:00,21.0,16.0,-100.00,SSE,157,3.0,-999.0,81,-99.99,,,-99.99,0.000000,,2013-01-27 10:42:00,
2013-01-27 05:52:00,21.0,16.0,-100.00,SSE,157,3.0,-999.0,81,-99.99,,,-99.99,0.000000,,2013-01-27 10:52:00,
2013-01-27 06:00:00,22.0,16.0,-100.00,SSE,157,3.0,-999.0,78,-99.99,,,-99.99,0.000000,,2013-01-27 11:00:00,
2013-01-27 06:22:00,22.0,16.0,-100.00,SSE,157,3.0,-999.0,78,-99.99,,,-99.99,0.000000,,2013-01-27 11:22:00,
2013-01-27 06:32:00,22.0,16.0,-100.00,SSE,157,3.0,-999.0,78,-99.99,,,-99.99,0.000000,,2013-01-27 11:32:00,
2013-01-27 06:42:00,22.0,16.0,-100.00,SSE,157,3.0,-999.0,78,-99.99,,,-99.99,0.000000,,2013-01-27 11:42:00,
2013-01-27 06:52:00,22.0,16.0,-100.00,SSE,157,3.0,-999.0,78,-99.99,,,-99.99,0.000000,,2013-01-27 11:52:00,
2013-01-27 07:00:00,22.0,16.0,-100.00,SSE,157,5.0,-999.0,76,-99.99,,,-99.99,0.000000,,2013-01-27 12:00:00,
2013-01-27 07:22:00,22.0,16.0,-100.00,SSE,157,5.0,-999.0,76,-99.99,,,-99.99,0.000000,,2013-01-27 12:22:00,
2013-01-27 07:33:00,22.0,16.0,-100.00,SSE,157,5.0,-999.0,76,-99.99,,,-99.99,0.000000,,2013-01-27 12:33:00,
2013-01-27 07:42:00,22.0,16.0,-100.00,SSE,157,5.0,-999.0,76,-99.99,,,-99.99,0.000000,,2013-01-27 12:42:00,
2013-01-27 07:52:00,22.0,16.0,-100.00,SSE,157,5.0,-999.0,76,-99.99,,,-99.99,0.000000,,2013-01-27 12:52:00,
2013-01-27 08:00:00,22.0,16.0,-100.00,SSE,157,7.0,-999.0,74,-99.99,,,-99.99,0.000000,,2013-01-27 13:00:00,
2013-01-27 08:42:00,22.0,16.0,-100.00,SSE,157,7.0,-999.0,74,-99.99,,,-99.99,0.000000,,2013-01-27 13:42:00,
2013-01-27 08:52:00,22.0,16.0,-100.00,SSE,157,7.0,-999.0,74,-99.99,,,-99.99,0.000000,,2013-01-27 13:52:00,
2013-01-27 09:00:00,22.0,15.0,-100.00,SSE,157,6.0,-999.0,73,-99.99,,,-99.99,24.360001,,2013-01-27 14:00:00,
2013-01-27 09:43:00,22.0,15.0,-100.00,SSE,157,6.0,-999.0,73,-99.99,,,-99.99,24.360001,,2013-01-27 14:43:00,
2013-01-27 09:53:00,22.0,15.0,-100.00,SSE,157,6.0,-999.0,73,-99.99,,,-99.99,24.360001,,2013-01-27 14:53:00,
2013-01-27 10:00:00,23.0,15.0,-100.00,SSE,157,8.0,-999.0,70,-99.99,,,-99.99,104.400002,,2013-01-27 15:00:00,
2013-01-27 10:42:00,23.0,15.0,-100.00,SSE,157,8.0,-999.0,70,-99.99,,,-99.99,104.400002,,2013-01-27 15:42:00,
2013-01-27 10:53:00,23.0,15.0,-100.00,SSE,157,8.0,-999.0,70,-99.99,,,-99.99,104.400002,,2013-01-27 15:53:00,
2013-01-27 11:00:00,24.0,15.0,-100.00,SSE,157,8.0,-999.0,67,-99.99,,,-99.99,168.199997,,2013-01-27 16:00:00,
2013-01-27 11:33:00,24.0,15.0,-100.00,SSE,157,8.0,-999.0,67,-99.99,,,-99.99,168.199997,,2013-01-27 16:33:00,
2013-01-27 11:42:00,24.0,15.0,-100.00,SSE,157,8.0,-999.0,67,-99.99,,,-99.99,168.199997,,2013-01-27 16:42:00,
2013-01-27 11:53:00,24.0,15.0,-100.00,SSE,157,8.0,-999.0,67,-99.99,,,-99.99,168.199997,,2013-01-27 16:53:00,
2013-01-27 12:00:00,25.0,15.0,-100.00,South,180,8.0,-999.0,65,-99.99,,,-99.99,165.880005,,2013-01-27 17:00:00,
2013-01-27 12:42:00,25.0,15.0,-100.00,South,180,8.0,-999.0,65,-99.99,,,-99.99,165.880005,,2013-01-27 17:42:00,
2013-01-27 12:53:00,25.0,15.0,-100.00,South,180,8.0,-999.0,65,-99.99,,,-99.99,165.880005,,2013-01-27 17:53:00,
2013-01-27 13:00:00,26.0,16.0,-100.00,SSE,157,7.0,-999.0,65,-99.99,,,-99.99,169.360001,,2013-01-27 18:00:00,
2013-01-27 13:42:00,26.0,16.0,-100.00,SSE,157,7.0,-999.0,65,-99.99,,,-99.99,169.360001,,2013-01-27 18:42:00,
2013-01-27 13:53:00,26.0,16.0,-100.00,SSE,157,7.0,-999.0,65,-99.99,,,-99.99,169.360001,,2013-01-27 18:53:00,
2013-01-27 14:00:00,27.0,16.0,-100.00,SSE,157,7.0,-999.0,64,-99.99,,,-99.99,193.720001,,2013-01-27 19:00:00,
2013-01-27 14:42:00,27.0,16.0,-100.00,SSE,157,7.0,-999.0,64,-99.99,,,-99.99,193.720001,,2013-01-27 19:42:00,
2013-01-27 14:52:00,27.0,16.0,-100.00,SSE,157,7.0,-999.0,64,-99.99,,,-99.99,193.720001,,2013-01-27 19:52:00,
2013-01-27 15:00:00,27.0,17.0,-100.00,SE,135,9.0,-999.0,63,-99.99,,,-99.99,165.880005,,2013-01-27 20:00:00,
2013-01-27 15:42:00,27.0,17.0,-100.00,SE,135,9.0,-999.0,63,-99.99,,,-99.99,165.880005,,2013-01-27 20:42:00,
2013-01-27 15:52:00,27.0,17.0,-100.00,SE,135,9.0,-999.0,63,-99.99,,,-99.99,165.880005,,2013-01-27 20:52:00,
2013-01-27 16:00:00,28.0,17.0,-100.00,SE,135,8.0,-999.0,62,-99.99,,,-99.99,89.320000,,2013-01-27 21:00:00,
2013-01-27 16:43:00,28.0,17.0,-100.00,SE,135,8.0,-999.0,62,-99.99,,,-99.99,89.320000,,2013-01-27 21:43:00,
2013-01-27 16:52:00,28.0,17.0,-100.00,SE,135,8.0,-999.0,62,-99.99,,,-99.99,89.320000,,2013-01-27 21:52:00,
2013-01-27 18:00:00,26.0,21.0,-100.00,ESE,112,10.0,-999.0,81,-99.99,,,-99.99,4.640000,,2013-01-27 23:00:00,
2013-01-27 18:32:00,26.0,21.0,-100.00,ESE,112,10.0,-999.0,81,-99.99,,,-99.99,4.640000,,2013-01-27 23:32:00,
2013-01-27 18:42:00,26.0,21.0,-100.00,ESE,112,10.0,-999.0,81,-99.99,,,-99.99,4.640000,,2013-01-27 23:42:00,
2013-01-27 18:53:00,26.0,21.0,-100.00,ESE,112,10.0,-999.0,81,-99.99,,,-99.99,4.640000,,2013-01-27 23:53:00,
2013-01-27 19:00:00,26.0,24.0,-100.00,SE,135,8.0,-999.0,92,-99.99,,,-99.99,0.000000,,2013-01-28 00:00:00,
2013-01-27 19:33:00,26.0,24.0,-100.00,SE,135,8.0,-999.0,92,-99.99,,,-99.99,0.000000,,2013-01-28 00:33:00,
2013-01-27 19:42:00,26.0,24.0,-100.00,SE,135,8.0,-999.0,92,-99.99,,,-99.99,0.000000,,2013-01-28 00:42:00,
2013-01-27 19:52:00,26.0,24.0,-100.00,SE,135,8.0,-999.0,92,-99.99,,,-99.99,0.000000,,2013-01-28 00:52:00,
2013-01-27 20:00:00,26.0,24.0,-100.00,ESE,112,10.0,-999.0,92,-99.99,,,-99.99,0.000000,,2013-01-28 01:00:00,
2013-01-27 20:42:00,26.0,24.0,-100.00,ESE,112,10.0,-999.0,92,-99.99,,,-99.99,0.000000,,2013-01-28 01:42:00,
2013-01-27 20:52:00,26.0,24.0,-100.00,ESE,112,10.0,-999.0,92,-99.99,,,-99.99,0.000000,,2013-01-28 01:52:00,
2013-01-27 21:00:00,27.0,25.0,-100.00,ESE,112,10.0,-999.0,91,-99.99,,,-99.99,0.000000,,2013-01-28 02:00:00,
2013-01-27 21:42:00,27.0,25.0,-100.00,ESE,112,10.0,-999.0,91,-99.99,,,-99.99,0.000000,,2013-01-28 02:42:00,
2013-01-27 21:53:00,27.0,25.0,-100.00,ESE,112,10.0,-999.0,91,-99.99,,,-99.99,0.000000,,2013-01-28 02:53:00,
2013-01-27 22:00:00,28.0,25.0,-100.00,SE,135,9.0,-999.0,90,-99.99,,,-99.99,0.000000,,2013-01-28 03:00:00,
2013-01-27 22:42:00,28.0,25.0,-100.00,SE,135,9.0,-999.0,90,-99.99,,,-99.99,0.000000,,2013-01-28 03:42:00,
2013-01-27 22:53:00,28.0,25.0,-100.00,SE,135,9.0,-999.0,90,-99.99,,,-99.99,0.000000,,2013-01-28 03:53:00,
2013-01-27 23:00:00,29.0,26.0,-100.00,ESE,112,9.0,-999.0,89,-99.99,,,-99.99,0.000000,,2013-01-28 04:00:00,
2013-01-27 23:42:00,29.0,26.0,-100.00,ESE,112,9.0,-999.0,89,-99.99,,,-99.99,0.000000,,2013-01-28 04:42:00,
2013-01-27 23:52:00,29.0,26.0,-100.00,ESE,112,9.0,-999.0,89,-99.99,,,-99.99,0.000000,,2013-01-28 04:52:00,